createdAt,value
2023-01-24T00:01:13.137Z,103455.41
2023-01-24T00:03:40.063Z,103455.41
2023-01-24T00:06:07.453Z,103456.31
2023-01-24T00:08:34.353Z,103454.50
2023-01-24T00:11:07.860Z,103456.31
2023-01-24T00:13:37.047Z,103466.06
2023-01-24T00:16:07.930Z,103470.50
2023-01-24T00:18:35.594Z,103466.06
2023-01-24T00:21:15.505Z,103459.81
2023-01-24T00:23:49.224Z,103457.13
2023-01-24T00:26:17.825Z,103453.59
2023-01-24T00:28:47.974Z,103451.78
2023-01-24T00:31:15.744Z,103451.75
2023-01-24T00:33:43.075Z,103439.31
2023-01-24T00:36:10.938Z,103434.00
2023-01-24T00:38:37.898Z,103432.19
2023-01-24T00:41:05.173Z,103439.28
2023-01-24T00:43:32.003Z,103437.50
2023-01-24T00:45:59.216Z,103426.84
2023-01-24T00:48:26.488Z,103424.19
2023-01-24T00:50:53.828Z,103435.75
2023-01-24T00:53:20.819Z,103433.97
2023-01-24T00:55:48.652Z,103430.44
2023-01-24T00:58:16.145Z,103419.75
2023-01-24T01:00:43.068Z,103423.28
2023-01-24T01:03:20.498Z,103420.63
2023-01-24T01:05:47.731Z,103418.88
2023-01-24T01:08:14.964Z,103416.19
2023-01-24T01:10:42.236Z,103415.31
2023-01-24T01:13:13.409Z,103413.50
2023-01-24T01:15:40.484Z,103410.84
2023-01-24T01:18:07.490Z,103402.84
2023-01-24T01:20:34.715Z,103409.94
2023-01-24T01:23:01.739Z,103404.63
2023-01-24T01:25:28.625Z,103409.94
2023-01-24T01:27:55.694Z,103417.09
2023-01-24T01:30:22.810Z,103419.75
2023-01-24T01:32:49.658Z,103428.66
2023-01-24T01:35:16.548Z,103426.84
2023-01-24T01:37:43.341Z,103423.28
2023-01-24T01:40:11.355Z,103418.84
2023-01-24T01:42:55.715Z,103424.19
2023-01-24T01:46:00.978Z,103417.94
2023-01-24T01:48:52.133Z,103417.06
2023-01-24T01:51:44.185Z,103417.03
2023-01-24T01:54:29.037Z,103418.84
2023-01-24T01:57:13.256Z,103430.38
2023-01-24T01:59:48.955Z,103423.28
2023-01-24T02:02:18.898Z,103414.38
2023-01-24T02:04:54.067Z,103413.47
2023-01-24T02:07:35.553Z,103413.47
2023-01-24T02:10:04.997Z,103413.44
2023-01-24T02:12:39.426Z,103417.00
2023-01-24T02:15:32.007Z,103407.22
2023-01-24T02:18:01.653Z,103410.78
2023-01-24T02:20:42.504Z,103409.88
2023-01-24T02:23:18.599Z,103410.75
2023-01-24T02:26:17.060Z,103404.50
2023-01-24T02:29:00.723Z,103414.28
2023-01-24T02:31:28.459Z,103417.81
2023-01-24T02:33:55.916Z,103416.91
2023-01-24T02:36:42.109Z,103416.91
2023-01-24T02:39:19.608Z,103414.22
2023-01-24T02:42:00.635Z,103415.13
2023-01-24T02:44:43.147Z,103419.56
2023-01-24T02:47:10.040Z,103418.66
2023-01-24T02:49:36.859Z,103421.34
2023-01-24T02:52:22.689Z,103410.69
2023-01-24T02:54:49.710Z,103416.00
2023-01-24T02:57:35.642Z,103407.09
2023-01-24T03:00:07.607Z,103403.53
2023-01-24T03:02:35.292Z,103412.41
2023-01-24T03:05:02.339Z,103410.59
2023-01-24T03:07:42.273Z,103410.59
2023-01-24T03:10:18.402Z,103414.16
2023-01-24T03:13:08.444Z,103410.59
2023-01-24T03:15:54.360Z,103410.59
2023-01-24T03:18:39.905Z,103401.72
2023-01-24T03:21:25.813Z,103410.59
2023-01-24T03:24:11.676Z,103404.38
2023-01-24T03:26:56.970Z,103412.34
2023-01-24T03:29:42.449Z,103410.59
2023-01-24T03:32:27.902Z,103407.03
2023-01-24T03:34:54.962Z,103410.59
2023-01-24T03:37:45.068Z,103409.72
2023-01-24T03:40:16.807Z,103404.38
2023-01-24T03:42:49.343Z,103410.59
2023-01-24T03:45:34.650Z,103401.72
2023-01-24T03:48:13.677Z,103399.94
2023-01-24T03:51:02.191Z,103398.16
2023-01-24T03:53:34.901Z,103403.47
2023-01-24T03:56:03.708Z,103407.03
2023-01-24T03:58:38.689Z,103405.22
2023-01-24T04:01:08.828Z,103415.84
2023-01-24T04:03:57.011Z,103412.28
2023-01-24T04:06:24.051Z,103414.09
2023-01-24T04:08:51.766Z,103414.91
2023-01-24T04:11:19.585Z,103404.25
2023-01-24T04:13:50.865Z,103406.03
2023-01-24T04:16:18.057Z,103404.22
2023-01-24T04:18:50.684Z,103408.66
2023-01-24T04:21:18.829Z,103405.09
2023-01-24T04:23:45.716Z,103406.84
2023-01-24T04:26:13.231Z,103405.09
2023-01-24T04:28:40.085Z,103412.19
2023-01-24T04:31:07.163Z,103405.09
2023-01-24T04:33:56.715Z,103406.84
2023-01-24T04:36:27.135Z,103407.78
2023-01-24T04:38:56.802Z,103419.34
2023-01-24T04:41:45.323Z,103413.97
2023-01-24T04:44:12.408Z,103419.34
2023-01-24T04:46:39.261Z,103412.19
2023-01-24T04:49:06.604Z,103419.31
2023-01-24T04:51:42.891Z,103413.94
2023-01-24T04:54:13.077Z,103421.06
2023-01-24T04:56:40.482Z,103417.50
2023-01-24T04:59:08.040Z,103411.25
2023-01-24T05:01:36.443Z,103405.91
2023-01-24T05:04:13.822Z,103414.78
2023-01-24T05:06:40.861Z,103416.56
2023-01-24T05:09:08.162Z,103410.34
2023-01-24T05:11:51.959Z,103410.38
2023-01-24T05:14:18.830Z,103413.03
2023-01-24T05:16:46.112Z,103419.28
2023-01-24T05:19:13.039Z,103426.38
2023-01-24T05:21:39.908Z,103421.03
2023-01-24T05:24:07.467Z,103421.03
2023-01-24T05:26:34.672Z,103426.38
2023-01-24T05:29:02.016Z,103421.03
2023-01-24T05:31:30.440Z,103421.03
2023-01-24T05:33:58.585Z,103419.25
2023-01-24T05:36:26.275Z,103420.09
2023-01-24T05:38:53.556Z,103426.28
2023-01-24T05:41:22.010Z,103426.28
2023-01-24T05:43:52.052Z,103434.25
2023-01-24T05:46:24.502Z,103434.31
2023-01-24T05:49:21.120Z,103442.31
2023-01-24T05:51:49.392Z,103447.59
2023-01-24T05:54:25.489Z,103448.50
2023-01-24T05:56:58.848Z,103445.84
2023-01-24T05:59:30.244Z,103442.25
2023-01-24T06:01:58.745Z,103450.22
2023-01-24T06:04:25.869Z,103450.19
2023-01-24T06:06:52.738Z,103453.75
2023-01-24T06:09:19.643Z,103453.78
2023-01-24T06:11:46.819Z,103455.56
2023-01-24T06:14:18.621Z,103456.41
2023-01-24T06:16:47.530Z,103454.69
2023-01-24T06:19:16.400Z,103454.69
2023-01-24T06:22:09.579Z,103454.72
2023-01-24T06:24:37.923Z,103456.50
2023-01-24T06:27:37.531Z,103459.09
2023-01-24T06:30:05.301Z,103456.41
2023-01-24T06:32:53.593Z,103451.06
2023-01-24T06:35:48.482Z,103458.16
2023-01-24T06:38:25.260Z,103468.78
2023-01-24T06:41:02.725Z,103456.31
2023-01-24T06:43:30.408Z,103468.75
2023-01-24T06:45:57.406Z,103466.94
2023-01-24T06:48:24.357Z,103471.34
2023-01-24T06:50:51.276Z,103467.78
2023-01-24T06:53:18.100Z,103469.56
2023-01-24T06:55:48.112Z,103466.94
2023-01-24T06:58:15.101Z,103467.81
2023-01-24T07:00:42.042Z,103468.69
2023-01-24T07:03:10.101Z,103468.69
2023-01-24T07:05:40.384Z,103468.63
2023-01-24T07:08:07.591Z,103479.25
2023-01-24T07:10:34.857Z,103478.44
2023-01-24T07:13:01.957Z,103469.50
2023-01-24T07:15:28.882Z,103481.03
2023-01-24T07:17:56.174Z,103489.91
2023-01-24T07:20:23.262Z,103500.59
2023-01-24T07:22:50.500Z,103504.16
2023-01-24T07:25:21.926Z,103504.16
2023-01-24T07:27:49.435Z,103508.63
2023-01-24T07:30:16.727Z,103513.94
2023-01-24T07:32:43.825Z,103509.50
2023-01-24T07:35:11.273Z,103502.41
2023-01-24T07:37:38.532Z,103511.25
2023-01-24T07:40:06.567Z,103509.44
2023-01-24T07:42:33.380Z,103518.38
2023-01-24T07:45:02.797Z,103521.94
2023-01-24T07:47:30.545Z,103521.97
2023-01-24T07:49:57.994Z,103526.41
2023-01-24T07:52:24.976Z,103511.31
2023-01-24T07:54:51.919Z,103520.16
2023-01-24T07:57:18.768Z,103529.03
2023-01-24T07:59:45.844Z,103520.13
2023-01-24T08:02:13.802Z,103525.47
2023-01-24T08:04:40.799Z,103525.47
2023-01-24T08:07:21.103Z,103531.69
2023-01-24T08:09:52.281Z,103532.56
2023-01-24T08:12:21.263Z,103528.97
2023-01-24T08:14:48.152Z,103533.44
2023-01-24T08:17:15.201Z,103532.50
2023-01-24T08:19:58.234Z,103528.06
2023-01-24T08:22:26.639Z,103530.75
2023-01-24T08:24:53.749Z,103535.19
2023-01-24T08:27:20.664Z,103537.84
2023-01-24T08:29:47.529Z,103539.63
2023-01-24T08:32:14.468Z,103539.63
2023-01-24T08:34:41.353Z,103538.75
2023-01-24T08:37:08.267Z,103544.97
2023-01-24T08:39:35.131Z,103542.34
2023-01-24T08:42:02.010Z,103547.66
2023-01-24T08:44:28.849Z,103547.66
2023-01-24T08:46:55.692Z,103548.50
2023-01-24T08:49:22.699Z,103550.25
2023-01-24T08:51:49.583Z,103557.38
2023-01-24T08:54:16.459Z,103562.69
2023-01-24T08:56:43.434Z,103560.06
2023-01-24T08:59:10.432Z,103561.00
2023-01-24T09:01:37.260Z,103566.34
2023-01-24T09:04:05.924Z,103566.34
2023-01-24T09:06:33.068Z,103555.69
2023-01-24T09:08:59.946Z,103561.91
2023-01-24T09:11:27.102Z,103563.66
2023-01-24T09:13:53.900Z,103568.09
2023-01-24T09:16:20.896Z,103565.41
2023-01-24T09:18:47.873Z,103564.56
2023-01-24T09:21:14.817Z,103569.06
2023-01-24T09:23:42.379Z,103569.97
2023-01-24T09:26:09.557Z,103568.25
2023-01-24T09:28:37.727Z,103570.94
2023-01-24T09:31:09.530Z,103571.84
2023-01-24T09:33:44.769Z,103570.97
2023-01-24T09:36:17.376Z,103572.75
2023-01-24T09:38:56.453Z,103579.84
2023-01-24T09:42:12.036Z,103578.91
2023-01-24T09:45:08.457Z,103579.75
2023-01-24T09:47:45.683Z,103583.22
2023-01-24T09:50:28.606Z,103573.47
2023-01-24T09:52:59.813Z,103577.91
2023-01-24T09:55:31.168Z,103586.81
2023-01-24T09:58:05.490Z,103586.81
2023-01-24T10:00:40.382Z,103593.91
2023-01-24T10:03:21.069Z,103593.00
2023-01-24T10:05:55.797Z,103590.34
2023-01-24T10:08:51.479Z,103593.00
2023-01-24T10:11:56.500Z,103601.91
2023-01-24T10:14:41.468Z,103593.94
2023-01-24T10:17:30.463Z,103593.06
2023-01-24T10:20:18.301Z,103587.75
2023-01-24T10:23:18.955Z,103594.88
2023-01-24T10:26:19.849Z,103593.19
2023-01-24T10:28:52.449Z,103589.72
2023-01-24T10:31:35.762Z,103594.19
2023-01-24T10:34:20.916Z,103591.53
2023-01-24T10:36:59.007Z,103584.41
2023-01-24T10:39:27.267Z,103591.53
2023-01-24T10:41:55.235Z,103597.75
2023-01-24T10:44:30.615Z,103589.72
2023-01-24T10:47:13.032Z,103584.41
2023-01-24T10:49:48.633Z,103587.97
2023-01-24T10:52:20.958Z,103582.69
2023-01-24T10:55:01.343Z,103582.78
2023-01-24T10:57:36.807Z,103593.47
2023-01-24T11:00:16.977Z,103573.94
2023-01-24T11:02:51.201Z,103577.41
2023-01-24T11:05:22.424Z,103582.72
2023-01-24T11:07:52.697Z,103577.41
2023-01-24T11:10:28.649Z,103578.31
2023-01-24T11:12:59.325Z,103572.06
2023-01-24T11:15:32.040Z,103577.41
2023-01-24T11:18:06.450Z,103571.22
2023-01-24T11:20:36.630Z,103561.41
2023-01-24T11:23:32.922Z,103566.78
2023-01-24T11:26:04.107Z,103565.97
2023-01-24T11:28:39.502Z,103558.88
2023-01-24T11:31:43.915Z,103554.47
2023-01-24T11:34:50.920Z,103549.13
2023-01-24T11:38:02.521Z,103543.78
2023-01-24T11:40:45.356Z,103542.88
2023-01-24T11:43:27.534Z,103540.13
2023-01-24T11:46:34.423Z,103536.53
2023-01-24T11:49:43.867Z,103545.47
2023-01-24T11:52:58.130Z,103543.66
2023-01-24T11:55:30.895Z,103541.03
2023-01-24T11:58:40.939Z,103531.19
2023-01-24T12:01:41.697Z,103530.31
2023-01-24T12:04:33.288Z,103524.16
2023-01-24T12:07:14.469Z,103524.19
2023-01-24T12:10:12.771Z,103516.31
2023-01-24T12:12:56.192Z,103515.41
2023-01-24T12:15:38.962Z,103509.19
2023-01-24T12:18:17.777Z,103502.06
2023-01-24T12:21:01.952Z,103508.28
2023-01-24T12:23:47.291Z,103507.44
2023-01-24T12:26:29.100Z,103508.38
2023-01-24T12:29:25.853Z,103502.16
2023-01-24T12:32:06.827Z,103488.81
2023-01-24T12:34:45.549Z,103495.91
2023-01-24T12:37:29.151Z,103497.66
2023-01-24T12:40:13.663Z,103499.38
2023-01-24T12:42:58.631Z,103492.25
2023-01-24T12:45:44.323Z,103497.59
2023-01-24T12:48:27.449Z,103490.53
2023-01-24T12:51:14.682Z,103483.41
2023-01-24T12:53:58.851Z,103485.16
2023-01-24T12:56:34.567Z,103470.91
2023-01-24T12:59:02.841Z,103483.34
2023-01-24T13:02:18.766Z,103478.03
2023-01-24T13:05:10.302Z,103482.50
2023-01-24T13:07:42.955Z,103476.31
2023-01-24T13:10:25.701Z,103478.13
2023-01-24T13:12:55.462Z,103462.16
2023-01-24T13:15:48.699Z,103472.75
2023-01-24T13:18:41.433Z,103468.31
2023-01-24T13:21:30.153Z,103471.84
2023-01-24T13:24:13.977Z,103478.94
2023-01-24T13:27:11.026Z,103465.56
2023-01-24T13:29:58.747Z,103477.13
2023-01-24T13:32:26.668Z,103462.91
2023-01-24T13:34:59.309Z,103466.47
2023-01-24T13:37:32.180Z,103470.88
2023-01-24T13:40:23.090Z,103467.25
2023-01-24T13:42:49.967Z,103466.31
2023-01-24T13:45:40.550Z,103466.31
2023-01-24T13:48:41.782Z,103462.75
2023-01-24T13:51:17.814Z,103466.28
2023-01-24T13:54:02.681Z,103471.66
2023-01-24T13:56:29.923Z,103460.94
2023-01-24T13:58:58.473Z,103467.16
2023-01-24T14:01:27.325Z,103462.75
2023-01-24T14:04:04.620Z,103468.97
2023-01-24T14:06:45.494Z,103465.47
2023-01-24T14:09:28.914Z,103457.47
2023-01-24T14:12:05.478Z,103456.56
2023-01-24T14:14:36.713Z,103452.16
2023-01-24T14:17:26.990Z,103456.59
2023-01-24T14:19:57.229Z,103454.78
2023-01-24T14:22:39.437Z,103454.78
2023-01-24T14:25:39.097Z,103465.47
2023-01-24T14:28:27.247Z,103468.09
2023-01-24T14:31:00.516Z,103467.22
2023-01-24T14:33:37.999Z,103466.31
2023-01-24T14:36:27.246Z,103463.66
2023-01-24T14:39:25.848Z,103471.63
2023-01-24T14:42:03.428Z,103465.34
2023-01-24T14:44:57.601Z,103466.22
2023-01-24T14:47:29.667Z,103465.34
2023-01-24T14:50:03.368Z,103469.81
2023-01-24T14:52:35.843Z,103468.91
2023-01-24T14:55:36.884Z,103465.38
2023-01-24T14:58:29.784Z,103477.81
2023-01-24T15:01:01.684Z,103472.47
2023-01-24T15:03:36.317Z,103471.59
2023-01-24T15:06:17.223Z,103476.97
2023-01-24T15:08:44.432Z,103470.72
2023-01-24T15:11:30.940Z,103472.47
2023-01-24T15:14:18.036Z,103476.06
2023-01-24T15:16:55.979Z,103479.53
2023-01-24T15:19:28.007Z,103482.19
2023-01-24T15:21:58.012Z,103469.69
2023-01-24T15:24:32.106Z,103473.19
2023-01-24T15:27:20.112Z,103465.22
2023-01-24T15:29:51.084Z,103461.59
2023-01-24T15:32:37.375Z,103469.59
2023-01-24T15:35:31.931Z,103466.88
2023-01-24T15:38:15.685Z,103464.19
2023-01-24T15:41:13.019Z,103465.97
2023-01-24T15:43:51.505Z,103470.44
2023-01-24T15:46:51.979Z,103469.50
2023-01-24T15:49:34.382Z,103475.66
2023-01-24T15:52:08.061Z,103469.44
2023-01-24T15:54:37.773Z,103469.41
2023-01-24T15:57:20.320Z,103468.53
2023-01-24T16:00:00.272Z,103470.25
2023-01-24T16:02:28.070Z,103468.44
2023-01-24T16:04:54.986Z,103468.38
2023-01-24T16:07:22.175Z,103467.50
2023-01-24T16:09:50.197Z,103462.22
2023-01-24T16:12:21.051Z,103458.66
2023-01-24T16:15:08.385Z,103466.63
2023-01-24T16:17:36.432Z,103468.47
2023-01-24T16:20:11.518Z,103469.38
2023-01-24T16:22:38.440Z,103467.63
2023-01-24T16:25:05.803Z,103469.44
2023-01-24T16:27:33.311Z,103472.06
2023-01-24T16:30:00.535Z,103475.63
2023-01-24T16:32:29.524Z,103476.50
2023-01-24T16:34:56.559Z,103482.75
2023-01-24T16:37:23.785Z,103477.44
2023-01-24T16:39:50.769Z,103484.50
2023-01-24T16:42:19.779Z,103483.59
2023-01-24T16:45:01.033Z,103489.75
2023-01-24T16:47:29.312Z,103492.34
2023-01-24T16:49:57.907Z,103487.94
2023-01-24T16:52:27.136Z,103484.38
2023-01-24T16:54:54.143Z,103482.59
2023-01-24T16:57:21.163Z,103478.19
2023-01-24T16:59:49.229Z,103480.84
2023-01-24T17:02:17.080Z,103473.81
2023-01-24T17:04:44.189Z,103481.88
2023-01-24T17:07:11.111Z,103482.75
2023-01-24T17:09:38.047Z,103485.41
2023-01-24T17:12:14.103Z,103477.44
2023-01-24T17:14:43.792Z,103486.31
2023-01-24T17:17:11.295Z,103480.13
2023-01-24T17:19:38.392Z,103471.19
2023-01-24T17:22:06.693Z,103472.06
2023-01-24T17:24:34.575Z,103481.78
2023-01-24T17:27:01.638Z,103475.53
2023-01-24T17:29:29.006Z,103464.88
2023-01-24T17:31:57.547Z,103458.66
2023-01-24T17:34:24.978Z,103466.63
2023-01-24T17:36:52.807Z,103462.19
2023-01-24T17:39:20.588Z,103457.72
2023-01-24T17:41:47.453Z,103470.16
2023-01-24T17:44:17.275Z,103464.88
2023-01-24T17:46:44.854Z,103472.84
2023-01-24T17:49:11.807Z,103466.63
2023-01-24T17:51:39.163Z,103473.69
2023-01-24T17:54:06.839Z,103474.53
2023-01-24T17:56:33.868Z,103469.16
2023-01-24T17:59:01.040Z,103477.16
2023-01-24T18:01:28.243Z,103479.78
2023-01-24T18:03:56.129Z,103478.94
2023-01-24T18:06:23.450Z,103480.69
2023-01-24T18:08:50.435Z,103490.44
2023-01-24T18:11:19.865Z,103480.63
2023-01-24T18:13:47.611Z,103481.50
2023-01-24T18:16:20.859Z,103475.25
2023-01-24T18:18:48.541Z,103475.19
2023-01-24T18:21:22.780Z,103471.63
2023-01-24T18:24:01.595Z,103472.50
2023-01-24T18:26:30.801Z,103473.38
2023-01-24T18:29:00.425Z,103467.16
2023-01-24T18:31:28.222Z,103476.00
2023-01-24T18:34:00.375Z,103471.59
2023-01-24T18:36:28.937Z,103468.06
2023-01-24T18:38:56.792Z,103470.78
2023-01-24T18:41:25.169Z,103469.91
2023-01-24T18:43:52.010Z,103462.81
2023-01-24T18:46:18.913Z,103471.72
2023-01-24T18:48:45.944Z,103472.53
2023-01-24T18:51:21.038Z,103469.84
2023-01-24T18:53:52.600Z,103473.38
2023-01-24T18:56:19.837Z,103476.81
2023-01-24T18:58:47.683Z,103476.81
2023-01-24T19:01:23.191Z,103476.81
2023-01-24T19:03:51.226Z,103479.47
2023-01-24T19:06:33.004Z,103480.38
2023-01-24T19:09:04.336Z,103476.81
2023-01-24T19:11:34.911Z,103475.94
2023-01-24T19:14:03.227Z,103478.53
2023-01-24T19:16:34.890Z,103474.13
2023-01-24T19:19:01.830Z,103478.59
2023-01-24T19:21:31.903Z,103473.25
2023-01-24T19:24:00.169Z,103470.59
2023-01-24T19:26:27.977Z,103468.00
2023-01-24T19:28:57.616Z,103475.97
2023-01-24T19:31:26.446Z,103468.88
2023-01-24T19:33:54.720Z,103471.63
2023-01-24T19:36:24.311Z,103475.19
2023-01-24T19:38:57.667Z,103477.84
2023-01-24T19:41:27.079Z,103468.06
2023-01-24T19:46:42.396Z,103477.88
2023-01-24T19:49:12.270Z,103473.44
2023-01-24T19:51:39.507Z,103474.25
2023-01-24T19:54:06.532Z,103466.28
2023-01-24T19:56:36.299Z,103475.97
2023-01-24T19:59:04.526Z,103467.94
2023-01-24T20:01:31.605Z,103467.06
2023-01-24T20:04:06.191Z,103477.66
2023-01-24T20:06:42.076Z,103477.63
2023-01-24T20:09:08.889Z,103473.13
2023-01-24T20:11:35.887Z,103471.31
2023-01-24T20:14:02.886Z,103477.53
2023-01-24T20:16:31.287Z,103489.09
2023-01-24T20:19:01.448Z,103485.56
2023-01-24T20:21:32.175Z,103482.88
2023-01-24T20:24:03.757Z,103478.47
2023-01-24T20:26:31.541Z,103480.28
2023-01-24T20:29:01.367Z,103473.19
2023-01-24T20:31:28.773Z,103476.81
2023-01-24T20:33:56.584Z,103483.03
2023-01-24T20:36:23.528Z,103478.59
2023-01-24T20:38:55.777Z,103485.66
2023-01-24T20:41:24.296Z,103482.09
2023-01-24T20:43:57.427Z,103486.50
2023-01-24T20:46:29.010Z,103485.59
2023-01-24T20:48:59.346Z,103484.78
2023-01-24T20:51:29.362Z,103487.38
2023-01-24T20:53:59.271Z,103488.19
2023-01-24T20:56:28.785Z,103492.53
2023-01-24T20:59:02.295Z,103485.41
2023-01-24T21:01:30.566Z,103487.16
2023-01-24T21:04:03.789Z,103488.91
2023-01-24T21:06:35.546Z,103488.06
2023-01-24T21:09:03.316Z,103487.22
2023-01-24T21:11:33.247Z,103485.47
2023-01-24T21:14:04.104Z,103484.63
2023-01-24T21:16:34.857Z,103484.66
2023-01-24T21:19:08.127Z,103476.75
2023-01-24T21:21:37.220Z,103478.53
2023-01-24T21:24:15.023Z,103478.56
2023-01-24T21:26:48.040Z,103475.00
2023-01-24T21:29:14.900Z,103476.81
2023-01-24T21:31:41.901Z,103467.94
2023-01-24T21:34:09.955Z,103464.31
2023-01-24T21:36:37.843Z,103473.09
2023-01-24T21:39:07.532Z,103482.88
2023-01-24T21:41:53.145Z,103468.00
2023-01-24T21:44:20.632Z,103468.91
2023-01-24T21:46:48.954Z,103475.00
2023-01-24T21:49:16.219Z,103474.03
2023-01-24T21:51:48.589Z,103473.97
2023-01-24T21:54:28.209Z,103473.06
2023-01-24T21:57:32.466Z,103467.69
2023-01-24T22:00:08.532Z,103458.84
2023-01-24T22:02:42.567Z,103463.31
2023-01-24T22:05:10.074Z,103470.41
2023-01-24T22:07:37.170Z,103463.22
2023-01-24T22:10:05.138Z,103468.47
2023-01-24T22:12:36.594Z,103460.41
2023-01-24T22:15:04.415Z,103456.88
2023-01-24T22:17:39.464Z,103453.34
2023-01-24T22:20:07.309Z,103463.94
2023-01-24T22:23:19.282Z,103458.53
2023-01-24T22:26:05.434Z,103460.31
2023-01-24T22:28:32.649Z,103456.72
2023-01-24T22:31:00.161Z,103457.63
2023-01-24T22:33:27.395Z,103454.06
2023-01-24T22:35:58.303Z,103455.78
2023-01-24T22:38:27.201Z,103460.16
2023-01-24T22:40:54.795Z,103465.53
2023-01-24T22:43:21.806Z,103463.81
2023-01-24T22:45:48.755Z,103457.56
2023-01-24T22:48:17.001Z,103451.34
2023-01-24T22:50:44.679Z,103453.09
2023-01-24T22:53:12.823Z,103449.66
2023-01-24T22:55:41.357Z,103446.09
2023-01-24T22:58:08.559Z,103453.22
2023-01-24T23:00:35.554Z,103446.09
2023-01-24T23:03:02.414Z,103437.25
2023-01-24T23:05:29.352Z,103434.59
2023-01-24T23:07:56.524Z,103436.31
2023-01-24T23:10:23.395Z,103435.53
2023-01-24T23:13:08.691Z,103428.41
2023-01-24T23:15:54.112Z,103429.22
2023-01-24T23:18:44.837Z,103416.72
2023-01-24T23:21:30.673Z,103413.22
2023-01-24T23:23:57.958Z,103408.69
2023-01-24T23:26:26.581Z,103412.22
2023-01-24T23:29:21.896Z,103408.59
2023-01-24T23:31:48.873Z,103408.53
2023-01-24T23:34:36.678Z,103405.94
2023-01-24T23:37:03.556Z,103404.25
2023-01-24T23:39:30.476Z,103400.78
2023-01-24T23:41:57.410Z,103391.97
2023-01-24T23:44:24.456Z,103391.97
2023-01-24T23:46:51.401Z,103390.19
2023-01-24T23:49:18.204Z,103387.59
2023-01-24T23:51:45.351Z,103378.72
2023-01-24T23:54:12.382Z,103379.63
2023-01-24T23:56:39.164Z,103380.53
2023-01-24T23:59:05.960Z,103379.63
